Time;durP1;ratioP1;P1;durP2;ratioP2;P2;SDS_P1;SDS_P2;PMS_P1;PMS_P2;Temp;Humidity;BMP_temperature;BMP_pressure;BME280_temperature;BME280_humidity;BME280_pressure;Samples;Min_cycle;Max_cycle;Signal;HPM_P1;HPM_P2
2021/06/10 00:03:55;;;;;;;10.40;6.50;;;;;;;;;;10531490;28;20223;-68
2021/06/10 00:08:57;;;;;;;9.83;6.80;;;;;;;;;;10531736;28;20315;-67
2021/06/10 00:13:59;;;;;;;10.10;6.73;;;;;;;;;;10525645;28;21445;-69
2021/06/10 00:19:02;;;;;;;11.37;7.20;;;;;;;;;;10532203;28;20216;-67
2021/06/10 00:24:05;;;;;;;12.17;7.00;;;;;;;;;;10529801;28;20199;-68
2021/06/10 00:29:07;;;;;;;9.53;6.97;;;;;;;;;;10529111;28;20571;-67
2021/06/10 00:34:11;;;;;;;11.73;7.13;;;;;;;;;;10531738;28;20457;-70
2021/06/10 00:39:13;;;;;;;11.00;7.93;;;;;;;;;;10540132;28;20249;-67
2021/06/10 00:44:15;;;;;;;11.97;7.80;;;;;;;;;;10526825;28;20287;-67
2021/06/10 00:49:19;;;;;;;13.13;8.10;;;;;;;;;;10525557;28;20192;-67
2021/06/10 00:54:21;;;;;;;13.73;8.53;;;;;;;;;;10536344;28;20774;-67
2021/06/10 00:59:23;;;;;;;11.23;8.93;;;;;;;;;;10524260;28;20288;-69
2021/06/10 01:04:26;;;;;;;12.03;8.67;;;;;;;;;;10527207;28;20659;-70
2021/06/10 01:09:31;;;;;;;11.07;7.90;;;;;;;;;;10526823;28;20290;-68
2021/06/10 01:14:36;;;;;;;13.40;9.83;;;;;;;;;;10526633;28;20215;-67
2021/06/10 01:19:49;;;;;;;12.93;9.43;;;;;;;;;;10527972;28;20279;-68
2021/06/10 01:24:55;;;;;;;12.87;9.27;;;;;;;;;;10524116;28;20208;-67
2021/06/10 01:30:03;;;;;;;14.33;9.47;;;;;;;;;;10528020;28;20278;-69
2021/06/10 01:35:06;;;;;;;13.63;9.53;;;;;;;;;;10524672;28;20291;-67
2021/06/10 01:40:09;;;;;;;14.33;10.70;;;;;;;;;;10523459;28;20297;-68
2021/06/10 01:45:13;;;;;;;15.03;10.10;;;;;;;;;;10525143;28;20207;-67
2021/06/10 01:50:16;;;;;;;14.90;10.87;;;;;;;;;;10526811;28;20278;-69
2021/06/10 01:55:20;;;;;;;17.43;11.27;;;;;;;;;;10524000;28;20721;-69
2021/06/10 02:00:24;;;;;;;15.30;10.70;;;;;;;;;;10526725;28;20290;-68
2021/06/10 02:05:27;;;;;;;16.50;11.27;;;;;;;;;;10522405;28;20211;-69
2021/06/10 02:10:29;;;;;;;15.90;10.97;;;;;;;;;;10522683;28;20191;-67
2021/06/10 02:15:33;;;;;;;15.77;11.60;;;;;;;;;;10522454;28;20292;-68
2021/06/10 02:20:35;;;;;;;15.90;11.50;;;;;;;;;;10527620;28;20212;-66
2021/06/10 02:25:37;;;;;;;17.27;12.30;;;;;;;;;;10523218;28;20214;-66
2021/06/10 02:30:40;;;;;;;16.03;11.30;;;;;;;;;;10527749;28;20285;-69
2021/06/10 02:35:43;;;;;;;16.83;11.87;;;;;;;;;;10524826;28;20219;-69
2021/06/10 02:40:46;;;;;;;17.07;12.27;;;;;;;;;;10525679;28;20210;-68
2021/06/10 02:45:50;;;;;;;17.17;12.57;;;;;;;;;;10522611;28;20207;-67
2021/06/10 02:50:52;;;;;;;17.77;12.33;;;;;;;;;;10524383;28;20198;-67
2021/06/10 02:55:54;;;;;;;17.77;12.40;;;;;;;;;;10534750;28;20223;-67
2021/06/10 03:00:58;;;;;;;16.80;11.83;;;;;;;;;;10526533;28;20199;-68
2021/06/10 03:06:01;;;;;;;16.70;12.17;;;;;;;;;;10550412;28;20199;-67
2021/06/10 03:11:05;;;;;;;18.43;12.87;;;;;;;;;;10527565;28;20644;-67
2021/06/10 03:16:09;;;;;;;17.07;12.57;;;;;;;;;;10533321;28;20207;-69
2021/06/10 03:21:12;;;;;;;15.80;10.63;;;;;;;;;;10542969;28;20225;-69
2021/06/10 03:26:14;;;;;;;17.17;12.33;;;;;;;;;;10528236;28;20629;-69
2021/06/10 03:31:17;;;;;;;15.73;11.33;;;;;;;;;;10529747;28;20279;-70
2021/06/10 03:36:20;;;;;;;16.93;12.00;;;;;;;;;;10534773;28;20314;-66
2021/06/10 03:41:23;;;;;;;16.77;11.73;;;;;;;;;;10528986;28;20539;-68
2021/06/10 03:46:27;;;;;;;15.60;11.47;;;;;;;;;;10532517;28;20295;-66
2021/06/10 03:51:30;;;;;;;16.13;11.27;;;;;;;;;;10531232;28;20199;-66
2021/06/10 03:56:32;;;;;;;16.73;10.60;;;;;;;;;;10528727;28;20222;-68
2021/06/10 04:01:35;;;;;;;16.60;10.80;;;;;;;;;;10528957;28;20764;-66
2021/06/10 04:06:38;;;;;;;14.30;10.20;;;;;;;;;;10526786;28;20223;-67
2021/06/10 04:11:40;;;;;;;13.37;9.20;;;;;;;;;;10533762;28;20651;-66
2021/06/10 04:16:45;;;;;;;13.00;9.63;;;;;;;;;;10545389;28;20306;-68
2021/06/10 04:22:07;;;;;;;14.30;9.87;;;;;;;;;;10545142;28;20665;-68
2021/06/10 04:27:29;;;;;;;12.10;8.60;;;;;;;;;;10528340;28;20208;-69
2021/06/10 04:32:52;;;;;;;13.27;9.33;;;;;;;;;;10514535;28;20211;-68
2021/06/10 04:38:15;;;;;;;13.50;8.67;;;;;;;;;;10513866;28;20286;-66
2021/06/10 04:43:37;;;;;;;12.03;9.13;;;;;;;;;;10524553;28;20202;-66
2021/06/10 04:49:01;;;;;;;15.27;9.43;;;;;;;;;;10527062;28;20225;-68
2021/06/10 04:54:23;;;;;;;13.80;8.87;;;;;;;;;;10535806;28;20199;-69
2021/06/10 04:59:45;;;;;;;13.90;8.97;;;;;;;;;;10531859;28;20270;-68
2021/06/10 05:05:09;;;;;;;12.67;9.10;;;;;;;;;;10530377;28;20215;-68
2021/06/10 05:10:12;;;;;;;13.13;8.90;;;;;;;;;;10527956;28;20231;-68
2021/06/10 05:15:34;;;;;;;12.63;8.53;;;;;;;;;;10526179;28;20235;-70
2021/06/10 05:20:57;;;;;;;13.30;8.90;;;;;;;;;;10524173;28;20590;-68
2021/06/10 05:26:19;;;;;;;13.17;8.47;;;;;;;;;;10525145;28;20586;-68
2021/06/10 05:31:41;;;;;;;13.30;7.93;;;;;;;;;;10520900;28;20199;-68
2021/06/10 05:37:05;;;;;;;12.17;8.27;;;;;;;;;;10544527;28;20247;-68
2021/06/10 05:42:27;;;;;;;13.60;8.33;;;;;;;;;;10514582;28;20222;-68
2021/06/10 05:47:49;;;;;;;14.57;9.33;;;;;;;;;;10520174;28;20690;-68
2021/06/10 05:53:15;;;;;;;14.20;9.07;;;;;;;;;;10524675;28;20294;-68
2021/06/10 05:58:37;;;;;;;12.47;7.67;;;;;;;;;;10530101;28;20587;-69
2021/06/10 06:03:59;;;;;;;12.90;9.50;;;;;;;;;;10521254;28;20206;-70
2021/06/10 06:09:22;;;;;;;15.57;9.97;;;;;;;;;;10538213;28;20226;-70
2021/06/10 06:14:44;;;;;;;15.23;10.00;;;;;;;;;;10515906;28;20797;-68
2021/06/10 06:20:05;;;;;;;14.53;9.53;;;;;;;;;;10524917;28;20191;-68
2021/06/10 06:25:18;;;;;;;15.27;9.57;;;;;;;;;;10527331;28;20303;-68
2021/06/10 06:30:40;;;;;;;13.57;9.10;;;;;;;;;;10524959;28;20203;-69
2021/06/10 06:36:02;;;;;;;14.40;9.13;;;;;;;;;;10532317;28;20214;-69
2021/06/10 06:41:25;;;;;;;14.07;8.60;;;;;;;;;;10534535;28;20223;-69
2021/06/10 06:46:47;;;;;;;14.57;9.27;;;;;;;;;;10535074;28;20215;-67
2021/06/10 06:52:10;;;;;;;14.43;9.33;;;;;;;;;;10549560;28;20203;-67
2021/06/10 06:57:33;;;;;;;12.80;8.50;;;;;;;;;;10533600;28;20551;-69
2021/06/10 07:02:55;;;;;;;10.97;7.27;;;;;;;;;;10527807;28;20290;-69
2021/06/10 07:08:17;;;;;;;12.73;8.13;;;;;;;;;;10528066;28;20203;-70
2021/06/10 07:13:22;;;;;;;10.87;8.03;;;;;;;;;;10532376;28;20322;-71
2021/06/10 07:18:44;;;;;;;11.37;8.07;;;;;;;;;;10530106;28;20227;-67
2021/06/10 07:24:06;;;;;;;10.93;8.00;;;;;;;;;;10532450;28;20202;-69
2021/06/10 07:29:29;;;;;;;10.40;7.43;;;;;;;;;;10524782;28;20705;-68
2021/06/10 07:34:51;;;;;;;9.30;6.75;;;;;;;;;;10525971;28;20238;-67
2021/06/10 07:40:14;;;;;;;9.88;6.55;;;;;;;;;;10530582;28;20813;-69
2021/06/10 07:45:38;;;;;;;10.77;7.68;;;;;;;;;;10524945;28;20212;-69
2021/06/10 07:51:02;;;;;;;9.10;6.63;;;;;;;;;;10519371;28;20200;-70
2021/06/10 07:56:05;;;;;;;10.32;6.95;;;;;;;;;;10532165;28;20211;-68
2021/06/10 08:01:08;;;;;;;10.55;7.30;;;;;;;;;;10530068;28;20282;-70
2021/06/10 08:06:30;;;;;;;10.65;7.38;;;;;;;;;;10530511;28;20230;-68
2021/06/10 08:11:34;;;;;;;9.98;7.35;;;;;;;;;;10532626;28;20674;-69
2021/06/10 08:16:37;;;;;;;11.20;7.50;;;;;;;;;;10521119;28;20228;-67
2021/06/10 08:21:39;;;;;;;9.55;7.38;;;;;;;;;;10520764;28;20263;-68
2021/06/10 08:26:42;;;;;;;9.85;7.57;;;;;;;;;;10522261;28;20219;-68
2021/06/10 08:31:46;;;;;;;10.55;8.30;;;;;;;;;;10526146;28;20191;-69
2021/06/10 08:36:49;;;;;;;10.88;8.18;;;;;;;;;;10534953;28;20207;-71
2021/06/10 08:41:51;;;;;;;12.02;8.45;;;;;;;;;;10529797;28;20191;-70
2021/06/10 08:46:55;;;;;;;11.68;8.30;;;;;;;;;;10525049;28;20227;-69
2021/06/10 08:51:57;;;;;;;9.07;7.70;;;;;;;;;;10519843;28;20265;-70
2021/06/10 08:57:00;;;;;;;11.02;8.13;;;;;;;;;;10536998;28;20211;-71
2021/06/10 09:02:03;;;;;;;9.45;7.63;;;;;;;;;;10527874;28;20183;-68
2021/06/10 09:07:07;;;;;;;10.43;8.75;;;;;;;;;;10530390;28;20247;-66
2021/06/10 09:12:11;;;;;;;11.35;8.27;;;;;;;;;;10541995;28;20238;-69
2021/06/10 09:17:26;;;;;;;10.48;8.90;;;;;;;;;;10530306;28;20246;-69
2021/06/10 09:22:29;;;;;;;9.60;8.00;;;;;;;;;;10519473;28;20192;-69
2021/06/10 09:27:31;;;;;;;10.18;7.80;;;;;;;;;;10514681;28;20215;-68
2021/06/10 09:32:34;;;;;;;13.25;7.88;;;;;;;;;;10526162;28;20211;-69
2021/06/10 09:37:39;;;;;;;9.80;8.07;;;;;;;;;;10527970;28;20287;-69
2021/06/10 09:42:43;;;;;;;9.23;7.20;;;;;;;;;;10516942;28;20208;-69
2021/06/10 09:47:47;;;;;;;8.73;7.13;;;;;;;;;;10525198;28;20715;-69
2021/06/10 09:52:51;;;;;;;7.55;5.80;;;;;;;;;;10523633;28;20223;-71
2021/06/10 09:57:55;;;;;;;7.40;5.88;;;;;;;;;;10516902;28;21186;-72
2021/06/10 10:02:58;;;;;;;7.68;6.45;;;;;;;;;;10521428;28;20187;-72
2021/06/10 10:08:00;;;;;;;8.35;6.78;;;;;;;;;;10522909;28;20210;-70
2021/06/10 10:13:06;;;;;;;9.85;7.25;;;;;;;;;;10526540;28;20686;-69
2021/06/10 10:18:10;;;;;;;8.80;6.95;;;;;;;;;;10522417;28;20227;-72
2021/06/10 10:23:12;;;;;;;8.52;6.85;;;;;;;;;;10516252;28;20200;-70
2021/06/10 10:28:15;;;;;;;8.95;6.70;;;;;;;;;;10531646;28;20209;-70
2021/06/10 10:33:20;;;;;;;8.07;5.45;;;;;;;;;;10518482;28;20192;-71
2021/06/10 10:38:29;;;;;;;7.65;5.95;;;;;;;;;;10518919;28;20302;-70
2021/06/10 10:43:31;;;;;;;8.02;6.15;;;;;;;;;;10518589;28;20187;-70
2021/06/10 10:48:36;;;;;;;8.15;7.15;;;;;;;;;;10526748;28;20314;-69
2021/06/10 10:53:42;;;;;;;7.82;6.32;;;;;;;;;;10526685;28;20227;-70
2021/06/10 10:59:08;;;;;;;6.90;6.10;;;;;;;;;;10524856;28;20215;-71
2021/06/10 11:04:40;;;;;;;6.85;6.00;;;;;;;;;;10523343;28;20275;-70
2021/06/10 11:09:42;;;;;;;6.88;5.60;;;;;;;;;;10509949;28;20222;-70
2021/06/10 11:14:45;;;;;;;6.75;5.63;;;;;;;;;;10527039;28;20670;-68
2021/06/10 11:19:50;;;;;;;7.20;5.80;;;;;;;;;;10524304;28;20302;-69
2021/06/10 11:24:52;;;;;;;7.60;5.43;;;;;;;;;;10521060;28;20353;-68
2021/06/10 11:30:10;;;;;;;8.63;5.72;;;;;;;;;;10528734;28;20194;-69
2021/06/10 11:35:25;;;;;;;9.32;7.13;;;;;;;;;;10525455;28;20300;-69
2021/06/10 11:40:27;;;;;;;9.43;7.07;;;;;;;;;;10531477;28;20301;-68
2021/06/10 11:45:29;;;;;;;7.68;6.32;;;;;;;;;;10528955;28;20211;-68
2021/06/10 11:50:34;;;;;;;6.93;5.53;;;;;;;;;;10531029;28;20192;-71
2021/06/10 11:55:37;;;;;;;8.73;5.85;;;;;;;;;;10531603;28;20207;-70
2021/06/10 12:00:40;;;;;;;7.35;5.63;;;;;;;;;;10506491;28;20216;-70
2021/06/10 12:05:48;;;;;;;7.13;5.50;;;;;;;;;;10519857;28;20745;-70
2021/06/10 12:10:51;;;;;;;7.85;6.03;;;;;;;;;;10521835;28;20275;-69
2021/06/10 12:15:54;;;;;;;11.80;8.70;;;;;;;;;;10531990;28;20224;-69
2021/06/10 12:20:59;;;;;;;7.53;6.03;;;;;;;;;;10531443;28;20434;-68
2021/06/10 12:26:03;;;;;;;6.93;5.85;;;;;;;;;;10530123;28;20212;-69
2021/06/10 12:31:14;;;;;;;7.30;5.45;;;;;;;;;;10530565;28;20196;-67
2021/06/10 12:36:19;;;;;;;7.55;5.57;;;;;;;;;;10530364;28;20211;-68
2021/06/10 12:41:23;;;;;;;7.88;5.45;;;;;;;;;;10519382;28;20200;-68
2021/06/10 12:46:25;;;;;;;7.50;5.22;;;;;;;;;;10513369;28;20315;-69
2021/06/10 12:51:31;;;;;;;6.93;5.00;;;;;;;;;;10518023;28;20670;-70
2021/06/10 12:56:35;;;;;;;7.47;5.03;;;;;;;;;;10519218;28;20212;-70
2021/06/10 13:01:37;;;;;;;7.55;5.50;;;;;;;;;;10523789;28;20208;-68
2021/06/10 13:06:41;;;;;;;6.35;5.00;;;;;;;;;;10523871;28;20216;-70
2021/06/10 13:11:43;;;;;;;6.47;4.95;;;;;;;;;;10526103;28;20179;-70
2021/06/10 13:16:50;;;;;;;7.30;5.30;;;;;;;;;;10517849;28;20223;-68
2021/06/10 13:22:06;;;;;;;7.07;5.32;;;;;;;;;;10515649;28;20306;-69
2021/06/10 13:27:15;;;;;;;7.47;5.25;;;;;;;;;;10509825;28;20204;-68
2021/06/10 13:32:24;;;;;;;8.15;4.72;;;;;;;;;;10524454;28;20958;-69
2021/06/10 13:37:28;;;;;;;6.43;4.68;;;;;;;;;;10521751;28;20622;-69
2021/06/10 13:42:32;;;;;;;8.30;5.00;;;;;;;;;;10521021;28;20932;-69
2021/06/10 13:47:34;;;;;;;6.78;4.65;;;;;;;;;;10524926;28;20220;-68
2021/06/10 13:52:38;;;;;;;7.18;5.05;;;;;;;;;;10513810;28;20722;-69
2021/06/10 13:57:40;;;;;;;6.25;4.60;;;;;;;;;;10519120;28;20212;-68
2021/06/10 14:02:42;;;;;;;7.10;5.05;;;;;;;;;;10523891;28;20233;-69
2021/06/10 14:07:45;;;;;;;6.38;4.60;;;;;;;;;;10528705;28;20299;-69
2021/06/10 14:12:47;;;;;;;8.75;6.57;;;;;;;;;;10514284;28;20218;-67
2021/06/10 14:17:49;;;;;;;6.00;4.50;;;;;;;;;;10526798;28;20215;-69
2021/06/10 14:22:54;;;;;;;8.80;6.50;;;;;;;;;;10522605;28;20194;-69
2021/06/10 14:27:59;;;;;;;9.10;5.45;;;;;;;;;;10524184;28;20230;-68
2021/06/10 14:33:02;;;;;;;7.40;4.30;;;;;;;;;;10524301;28;20200;-67
2021/06/10 14:38:07;;;;;;;6.28;3.95;;;;;;;;;;10524133;28;20269;-69
2021/06/10 14:43:10;;;;;;;5.88;3.80;;;;;;;;;;10519951;28;20196;-67
2021/06/10 14:48:12;;;;;;;5.70;3.63;;;;;;;;;;10528794;28;20359;-68
2021/06/10 14:53:15;;;;;;;6.38;4.57;;;;;;;;;;10519695;28;20201;-68
2021/06/10 14:58:18;;;;;;;7.00;4.63;;;;;;;;;;10529424;28;20219;-68
2021/06/10 15:03:20;;;;;;;6.55;4.30;;;;;;;;;;10539810;28;20559;-69
2021/06/10 15:08:27;;;;;;;7.40;4.53;;;;;;;;;;10532409;28;20215;-71
2021/06/10 15:13:29;;;;;;;8.30;5.53;;;;;;;;;;10534362;28;20200;-71
2021/06/10 15:18:31;;;;;;;7.70;5.03;;;;;;;;;;10536485;28;20281;-70
2021/06/10 15:23:34;;;;;;;7.55;5.10;;;;;;;;;;10526951;28;20260;-69
2021/06/10 15:28:37;;;;;;;7.15;4.72;;;;;;;;;;10533037;28;20217;-70
2021/06/10 15:33:40;;;;;;;7.50;5.35;;;;;;;;;;10531549;28;20187;-69
2021/06/10 15:38:44;;;;;;;7.70;5.00;;;;;;;;;;10531615;28;20667;-69
2021/06/10 15:43:46;;;;;;;6.43;4.53;;;;;;;;;;10525356;28;20282;-68
2021/06/10 15:48:48;;;;;;;7.40;4.47;;;;;;;;;;10529456;28;20212;-69
2021/06/10 15:53:51;;;;;;;6.82;4.82;;;;;;;;;;10530462;28;20239;-68
2021/06/10 15:58:54;;;;;;;7.45;5.10;;;;;;;;;;10528563;28;20317;-68
2021/06/10 16:03:56;;;;;;;8.73;6.28;;;;;;;;;;10531502;28;20569;-67
2021/06/10 16:08:59;;;;;;;8.07;5.03;;;;;;;;;;10528899;28;20262;-69
2021/06/10 16:14:01;;;;;;;7.82;5.05;;;;;;;;;;10533440;28;20564;-69
2021/06/10 16:19:03;;;;;;;8.40;4.88;;;;;;;;;;10527260;28;20211;-69
2021/06/10 16:24:07;;;;;;;7.57;4.50;;;;;;;;;;10529963;28;20196;-69
2021/06/10 16:29:11;;;;;;;8.13;5.30;;;;;;;;;;10527985;28;20231;-69
2021/06/10 16:34:13;;;;;;;7.10;5.10;;;;;;;;;;10528476;28;20244;-68
2021/06/10 16:39:18;;;;;;;9.20;6.80;;;;;;;;;;10527719;28;20240;-71
2021/06/10 16:44:21;;;;;;;8.90;5.25;;;;;;;;;;10531068;28;20613;-69
2021/06/10 16:49:23;;;;;;;7.70;5.10;;;;;;;;;;10528537;28;20329;-70
2021/06/10 16:54:26;;;;;;;7.85;5.03;;;;;;;;;;10524101;28;20196;-70
2021/06/10 16:59:28;;;;;;;8.93;5.93;;;;;;;;;;10525930;28;20214;-70
2021/06/10 17:04:30;;;;;;;13.23;7.20;;;;;;;;;;10529691;28;20188;-68
2021/06/10 17:09:36;;;;;;;14.40;7.10;;;;;;;;;;10527446;28;20215;-70
2021/06/10 17:14:38;;;;;;;11.55;6.43;;;;;;;;;;10525664;28;20290;-70
2021/06/10 17:19:42;;;;;;;10.57;6.55;;;;;;;;;;10521589;28;20690;-68
2021/06/10 17:24:45;;;;;;;8.45;6.28;;;;;;;;;;10524608;28;20318;-69
2021/06/10 17:29:47;;;;;;;8.63;4.97;;;;;;;;;;10518176;28;20226;-69
2021/06/10 17:34:49;;;;;;;10.02;5.30;;;;;;;;;;10513371;28;20239;-68
2021/06/10 17:39:53;;;;;;;7.18;4.35;;;;;;;;;;10512810;28;20242;-68
2021/06/10 17:44:55;;;;;;;8.18;5.38;;;;;;;;;;10509503;28;20235;-69
2021/06/10 17:49:57;;;;;;;8.93;5.68;;;;;;;;;;10520433;28;20292;-70
2021/06/10 17:55:00;;;;;;;11.13;6.97;;;;;;;;;;10521876;28;20310;-69
2021/06/10 18:00:03;;;;;;;10.63;5.47;;;;;;;;;;10518733;28;20215;-69
2021/06/10 18:05:09;;;;;;;11.00;7.40;;;;;;;;;;10538576;28;20223;-70
2021/06/10 18:10:14;;;;;;;10.90;6.93;;;;;;;;;;10515696;28;20557;-70
2021/06/10 18:15:16;;;;;;;9.80;5.77;;;;;;;;;;10511523;28;20215;-69
2021/06/10 18:20:19;;;;;;;11.90;7.30;;;;;;;;;;10524480;28;20235;-68
2021/06/10 18:25:22;;;;;;;11.67;7.17;;;;;;;;;;10527736;28;20230;-69
2021/06/10 18:30:25;;;;;;;11.97;7.13;;;;;;;;;;10533359;28;20191;-71
2021/06/10 18:35:27;;;;;;;11.47;7.17;;;;;;;;;;10543126;28;20280;-69
2021/06/10 18:40:30;;;;;;;11.10;7.20;;;;;;;;;;10534997;28;20297;-68
2021/06/10 18:45:32;;;;;;;9.93;5.93;;;;;;;;;;10540102;28;20226;-69
2021/06/10 18:50:34;;;;;;;10.23;5.93;;;;;;;;;;10548771;28;20180;-70
2021/06/10 18:55:38;;;;;;;9.97;6.07;;;;;;;;;;10541518;28;20203;-70
2021/06/10 19:00:41;;;;;;;11.90;7.17;;;;;;;;;;10546178;28;20203;-70
2021/06/10 19:05:43;;;;;;;10.73;6.43;;;;;;;;;;10548886;28;20254;-69
2021/06/10 19:10:48;;;;;;;10.70;6.70;;;;;;;;;;10549484;28;20207;-70
2021/06/10 19:15:50;;;;;;;9.83;6.50;;;;;;;;;;10532221;28;20689;-70
2021/06/10 19:20:52;;;;;;;10.87;6.87;;;;;;;;;;10541283;28;20211;-70
2021/06/10 19:25:56;;;;;;;9.97;6.17;;;;;;;;;;10543170;28;20215;-70
2021/06/10 19:30:58;;;;;;;9.53;6.03;;;;;;;;;;10543975;28;20187;-69
2021/06/10 19:36:01;;;;;;;11.77;6.70;;;;;;;;;;10546227;28;20298;-70
2021/06/10 19:41:04;;;;;;;9.47;6.30;;;;;;;;;;10552452;28;20280;-70
2021/06/10 19:46:06;;;;;;;11.43;6.50;;;;;;;;;;10536829;28;20672;-70
2021/06/10 19:51:09;;;;;;;10.33;6.00;;;;;;;;;;10536177;28;20176;-69
2021/06/10 19:56:12;;;;;;;9.60;6.50;;;;;;;;;;10543785;28;20318;-68
2021/06/10 20:01:14;;;;;;;9.20;6.10;;;;;;;;;;10543167;28;20200;-69
2021/06/10 20:06:20;;;;;;;9.57;5.63;;;;;;;;;;10547481;28;20230;-71
2021/06/10 20:11:23;;;;;;;10.97;6.73;;;;;;;;;;10545760;28;20275;-69
2021/06/10 20:16:25;;;;;;;11.90;6.63;;;;;;;;;;10547367;28;20223;-70
2021/06/10 20:21:27;;;;;;;10.23;6.30;;;;;;;;;;10553748;28;20309;-69
2021/06/10 20:26:35;;;;;;;9.43;5.00;;;;;;;;;;10543568;28;20369;-70
2021/06/10 20:31:37;;;;;;;10.30;6.03;;;;;;;;;;10547793;28;20196;-69
2021/06/10 20:36:40;;;;;;;8.57;5.43;;;;;;;;;;10542357;28;20223;-69
2021/06/10 20:41:44;;;;;;;8.60;5.17;;;;;;;;;;10547721;28;20298;-70
2021/06/10 20:46:46;;;;;;;8.13;5.40;;;;;;;;;;10539605;28;20292;-71
2021/06/10 20:51:49;;;;;;;8.90;5.07;;;;;;;;;;10528075;28;20282;-69
2021/06/10 20:56:52;;;;;;;8.20;4.87;;;;;;;;;;10560966;27;20297;-71
2021/06/10 21:01:59;;;;;;;7.33;4.33;;;;;;;;;;10534454;28;20253;-71
2021/06/10 21:07:01;;;;;;;7.57;4.17;;;;;;;;;;10543288;28;20215;-69
2021/06/10 21:12:05;;;;;;;9.83;4.63;;;;;;;;;;10541689;28;20246;-70
2021/06/10 21:17:07;;;;;;;7.47;4.30;;;;;;;;;;10524665;28;20215;-70
2021/06/10 21:22:10;;;;;;;6.87;4.00;;;;;;;;;;10524477;28;20708;-70
2021/06/10 21:27:13;;;;;;;6.57;3.83;;;;;;;;;;10529433;28;20294;-69
2021/06/10 21:32:15;;;;;;;7.93;4.00;;;;;;;;;;10524007;28;20281;-70
2021/06/10 21:37:17;;;;;;;7.50;4.30;;;;;;;;;;10518302;28;20225;-69
2021/06/10 21:42:21;;;;;;;6.93;3.90;;;;;;;;;;10525842;28;20227;-69
2021/06/10 21:47:43;;;;;;;7.43;4.70;;;;;;;;;;10522686;28;20388;-70
2021/06/10 21:52:45;;;;;;;7.73;4.20;;;;;;;;;;10526741;28;20188;-70
2021/06/10 21:57:49;;;;;;;8.57;4.63;;;;;;;;;;10529495;28;20385;-71
2021/06/10 22:02:52;;;;;;;9.67;5.17;;;;;;;;;;10524075;28;20246;-70
2021/06/10 22:07:54;;;;;;;8.80;5.00;;;;;;;;;;10519747;28;20802;-71
2021/06/10 22:13:01;;;;;;;7.53;4.47;;;;;;;;;;10524113;28;20196;-71
2021/06/10 22:18:03;;;;;;;7.73;4.80;;;;;;;;;;10523329;28;20760;-71
2021/06/10 22:23:24;;;;;;;8.10;5.10;;;;;;;;;;10518848;28;20199;-70
2021/06/10 22:28:30;;;;;;;8.37;5.03;;;;;;;;;;10526957;28;20283;-70
2021/06/10 22:33:32;;;;;;;9.47;4.13;;;;;;;;;;10529157;28;20188;-70
2021/06/10 22:38:34;;;;;;;6.30;3.13;;;;;;;;;;10526106;28;20315;-69
2021/06/10 22:43:38;;;;;;;8.07;4.43;;;;;;;;;;10527561;28;20325;-69
2021/06/10 22:48:40;;;;;;;8.30;5.00;;;;;;;;;;10525576;28;20261;-69
2021/06/10 22:53:42;;;;;;;7.47;4.40;;;;;;;;;;10526385;28;20298;-70
2021/06/10 22:58:45;;;;;;;8.13;4.77;;;;;;;;;;10528006;28;20216;-71
2021/06/10 23:03:49;;;;;;;6.93;4.33;;;;;;;;;;10523320;28;20187;-70
2021/06/10 23:08:51;;;;;;;7.57;4.20;;;;;;;;;;10526231;28;20212;-70
2021/06/10 23:13:54;;;;;;;8.63;4.33;;;;;;;;;;10523481;28;20644;-69
2021/06/10 23:18:56;;;;;;;7.60;4.10;;;;;;;;;;10528720;28;20207;-69
2021/06/10 23:23:58;;;;;;;7.93;4.23;;;;;;;;;;10532418;28;20891;-70
2021/06/10 23:29:01;;;;;;;8.87;4.23;;;;;;;;;;10533465;28;20243;-69
2021/06/10 23:34:03;;;;;;;7.30;4.03;;;;;;;;;;10525744;28;20275;-69
2021/06/10 23:39:05;;;;;;;7.57;4.47;;;;;;;;;;10529605;28;20793;-69
2021/06/10 23:44:09;;;;;;;7.97;4.30;;;;;;;;;;10532410;28;20215;-71
2021/06/10 23:49:11;;;;;;;6.90;3.83;;;;;;;;;;10533235;28;20211;-69
2021/06/10 23:54:13;;;;;;;6.50;3.90;;;;;;;;;;10533986;28;20691;-69
2021/06/10 23:59:16;;;;;;;7.60;4.30;;;;;;;;;;10531736;28;20294;-70
